sensor_id;sensor_type;location;lat;lon;timestamp;pressure;altitude;pressure_sealevel;temperature
10058;BMP180;5068;51.286;7.518;2023-07-09T00:00:52;99678.00;;;22.50
10058;BMP180;5068;51.286;7.518;2023-07-09T00:02:27;99681.00;;;22.50
10058;BMP180;5068;51.286;7.518;2023-07-09T00:04:00;99684.00;;;22.40
10058;BMP180;5068;51.286;7.518;2023-07-09T00:05:34;99677.00;;;22.40
10058;BMP180;5068;51.286;7.518;2023-07-09T00:07:18;99685.00;;;22.40
10058;BMP180;5068;51.286;7.518;2023-07-09T00:08:51;99687.00;;;22.30
10058;BMP180;5068;51.286;7.518;2023-07-09T00:10:24;99668.00;;;22.30
10058;BMP180;5068;51.286;7.518;2023-07-09T00:11:58;99658.00;;;22.30
10058;BMP180;5068;51.286;7.518;2023-07-09T00:13:30;99668.00;;;22.30
10058;BMP180;5068;51.286;7.518;2023-07-09T00:15:05;99671.00;;;22.30
10058;BMP180;5068;51.286;7.518;2023-07-09T00:16:43;99676.00;;;22.20
10058;BMP180;5068;51.286;7.518;2023-07-09T00:18:19;99670.00;;;22.20
10058;BMP180;5068;51.286;7.518;2023-07-09T00:19:53;99679.00;;;22.10
10058;BMP180;5068;51.286;7.518;2023-07-09T00:21:26;99676.00;;;22.10
10058;BMP180;5068;51.286;7.518;2023-07-09T00:23:02;99684.00;;;22.00
10058;BMP180;5068;51.286;7.518;2023-07-09T00:24:37;99677.00;;;22.00
10058;BMP180;5068;51.286;7.518;2023-07-09T00:26:10;99682.00;;;21.90
10058;BMP180;5068;51.286;7.518;2023-07-09T00:27:46;99674.00;;;21.90
10058;BMP180;5068;51.286;7.518;2023-07-09T00:29:22;99673.00;;;21.90
10058;BMP180;5068;51.286;7.518;2023-07-09T00:30:55;99680.00;;;21.80
10058;BMP180;5068;51.286;7.518;2023-07-09T00:32:28;99673.00;;;21.80
10058;BMP180;5068;51.286;7.518;2023-07-09T00:34:03;99663.00;;;21.80
10058;BMP180;5068;51.286;7.518;2023-07-09T00:35:37;99662.00;;;21.70
10058;BMP180;5068;51.286;7.518;2023-07-09T00:37:12;99669.00;;;21.70
10058;BMP180;5068;51.286;7.518;2023-07-09T00:38:45;99685.00;;;21.70
10058;BMP180;5068;51.286;7.518;2023-07-09T00:40:22;99672.00;;;21.60
10058;BMP180;5068;51.286;7.518;2023-07-09T00:41:55;99668.00;;;21.50
10058;BMP180;5068;51.286;7.518;2023-07-09T00:43:32;99674.00;;;21.50
10058;BMP180;5068;51.286;7.518;2023-07-09T00:45:20;99664.00;;;21.50
10058;BMP180;5068;51.286;7.518;2023-07-09T00:47:18;99676.00;;;21.40
10058;BMP180;5068;51.286;7.518;2023-07-09T00:48:57;99680.00;;;21.40
10058;BMP180;5068;51.286;7.518;2023-07-09T00:50:38;99667.00;;;21.40
10058;BMP180;5068;51.286;7.518;2023-07-09T00:52:24;99664.00;;;21.30
10058;BMP180;5068;51.286;7.518;2023-07-09T00:54:09;99678.00;;;21.40
10058;BMP180;5068;51.286;7.518;2023-07-09T00:55:52;99661.00;;;21.40
10058;BMP180;5068;51.286;7.518;2023-07-09T00:57:29;99665.00;;;21.30
10058;BMP180;5068;51.286;7.518;2023-07-09T00:59:08;99669.00;;;21.30
10058;BMP180;5068;51.286;7.518;2023-07-09T01:00:46;99668.00;;;21.30
10058;BMP180;5068;51.286;7.518;2023-07-09T01:02:22;99668.00;;;21.30
10058;BMP180;5068;51.286;7.518;2023-07-09T01:03:59;99670.00;;;21.20
10058;BMP180;5068;51.286;7.518;2023-07-09T01:05:39;99670.00;;;21.20
10058;BMP180;5068;51.286;7.518;2023-07-09T01:07:11;99670.00;;;21.20
10058;BMP180;5068;51.286;7.518;2023-07-09T01:08:45;99670.00;;;21.10
10058;BMP180;5068;51.286;7.518;2023-07-09T01:10:26;99667.00;;;21.10
10058;BMP180;5068;51.286;7.518;2023-07-09T01:11:58;99673.00;;;21.10
10058;BMP180;5068;51.286;7.518;2023-07-09T01:13:33;99674.00;;;21.10
10058;BMP180;5068;51.286;7.518;2023-07-09T01:15:08;99668.00;;;21.00
10058;BMP180;5068;51.286;7.518;2023-07-09T01:16:47;99666.00;;;21.00
10058;BMP180;5068;51.286;7.518;2023-07-09T01:18:21;99665.00;;;21.00
10058;BMP180;5068;51.286;7.518;2023-07-09T01:19:56;99653.00;;;20.90
10058;BMP180;5068;51.286;7.518;2023-07-09T01:21:31;99669.00;;;20.90
10058;BMP180;5068;51.286;7.518;2023-07-09T01:23:04;99659.00;;;20.90
10058;BMP180;5068;51.286;7.518;2023-07-09T01:24:52;99670.00;;;20.80
10058;BMP180;5068;51.286;7.518;2023-07-09T01:26:27;99664.00;;;20.80
10058;BMP180;5068;51.286;7.518;2023-07-09T01:28:01;99660.00;;;20.80
10058;BMP180;5068;51.286;7.518;2023-07-09T01:29:35;99669.00;;;20.80
10058;BMP180;5068;51.286;7.518;2023-07-09T01:31:09;99655.00;;;20.80
10058;BMP180;5068;51.286;7.518;2023-07-09T01:32:44;99661.00;;;20.80
10058;BMP180;5068;51.286;7.518;2023-07-09T01:34:18;99670.00;;;20.70
10058;BMP180;5068;51.286;7.518;2023-07-09T01:35:52;99665.00;;;20.70
10058;BMP180;5068;51.286;7.518;2023-07-09T01:37:37;99669.00;;;20.70
10058;BMP180;5068;51.286;7.518;2023-07-09T01:39:10;99669.00;;;20.60
10058;BMP180;5068;51.286;7.518;2023-07-09T01:40:44;99663.00;;;20.60
10058;BMP180;5068;51.286;7.518;2023-07-09T01:42:23;99674.00;;;20.60
10058;BMP180;5068;51.286;7.518;2023-07-09T01:43:55;99671.00;;;20.50
10058;BMP180;5068;51.286;7.518;2023-07-09T01:45:29;99668.00;;;20.50
10058;BMP180;5068;51.286;7.518;2023-07-09T01:47:05;99668.00;;;20.50
10058;BMP180;5068;51.286;7.518;2023-07-09T01:48:39;99676.00;;;20.40
10058;BMP180;5068;51.286;7.518;2023-07-09T01:50:17;99657.00;;;20.40
10058;BMP180;5068;51.286;7.518;2023-07-09T01:51:50;99666.00;;;20.30
10058;BMP180;5068;51.286;7.518;2023-07-09T01:53:26;99667.00;;;20.30
10058;BMP180;5068;51.286;7.518;2023-07-09T01:54:59;99666.00;;;20.30
10058;BMP180;5068;51.286;7.518;2023-07-09T01:56:34;99665.00;;;20.30
10058;BMP180;5068;51.286;7.518;2023-07-09T01:58:10;99660.00;;;20.30
10058;BMP180;5068;51.286;7.518;2023-07-09T01:59:43;99646.00;;;20.20
10058;BMP180;5068;51.286;7.518;2023-07-09T02:01:16;99658.00;;;20.20
10058;BMP180;5068;51.286;7.518;2023-07-09T02:02:51;99664.00;;;20.20
10058;BMP180;5068;51.286;7.518;2023-07-09T02:04:26;99655.00;;;20.20
10058;BMP180;5068;51.286;7.518;2023-07-09T02:05:59;99660.00;;;20.20
10058;BMP180;5068;51.286;7.518;2023-07-09T02:07:35;99659.00;;;20.20
10058;BMP180;5068;51.286;7.518;2023-07-09T02:09:10;99668.00;;;20.10
10058;BMP180;5068;51.286;7.518;2023-07-09T02:10:44;99660.00;;;20.10
10058;BMP180;5068;51.286;7.518;2023-07-09T02:12:18;99668.00;;;20.10
10058;BMP180;5068;51.286;7.518;2023-07-09T02:13:50;99662.00;;;20.10
10058;BMP180;5068;51.286;7.518;2023-07-09T02:15:24;99666.00;;;20.00
10058;BMP180;5068;51.286;7.518;2023-07-09T02:16:56;99666.00;;;20.00
10058;BMP180;5068;51.286;7.518;2023-07-09T02:18:30;99668.00;;;20.00
10058;BMP180;5068;51.286;7.518;2023-07-09T02:20:06;99662.00;;;20.00
10058;BMP180;5068;51.286;7.518;2023-07-09T02:21:40;99662.00;;;20.00
10058;BMP180;5068;51.286;7.518;2023-07-09T02:23:13;99670.00;;;19.90
10058;BMP180;5068;51.286;7.518;2023-07-09T02:24:48;99659.00;;;19.90
10058;BMP180;5068;51.286;7.518;2023-07-09T02:26:20;99660.00;;;19.90
10058;BMP180;5068;51.286;7.518;2023-07-09T02:27:54;99662.00;;;19.90
10058;BMP180;5068;51.286;7.518;2023-07-09T02:29:27;99659.00;;;19.80
10058;BMP180;5068;51.286;7.518;2023-07-09T02:31:01;99668.00;;;19.80
10058;BMP180;5068;51.286;7.518;2023-07-09T02:32:33;99668.00;;;19.80
10058;BMP180;5068;51.286;7.518;2023-07-09T02:34:07;99665.00;;;19.80
10058;BMP180;5068;51.286;7.518;2023-07-09T02:35:39;99658.00;;;19.70
10058;BMP180;5068;51.286;7.518;2023-07-09T02:37:13;99664.00;;;19.70
10058;BMP180;5068;51.286;7.518;2023-07-09T02:38:47;99669.00;;;19.70
10058;BMP180;5068;51.286;7.518;2023-07-09T02:40:22;99666.00;;;19.70
10058;BMP180;5068;51.286;7.518;2023-07-09T02:41:55;99664.00;;;19.70
10058;BMP180;5068;51.286;7.518;2023-07-09T02:43:27;99665.00;;;19.70
10058;BMP180;5068;51.286;7.518;2023-07-09T02:45:02;99669.00;;;19.70
10058;BMP180;5068;51.286;7.518;2023-07-09T02:46:37;99672.00;;;19.70
10058;BMP180;5068;51.286;7.518;2023-07-09T02:48:10;99673.00;;;19.80
10058;BMP180;5068;51.286;7.518;2023-07-09T02:49:44;99666.00;;;19.80
10058;BMP180;5068;51.286;7.518;2023-07-09T02:51:17;99674.00;;;19.80
10058;BMP180;5068;51.286;7.518;2023-07-09T02:52:50;99679.00;;;19.70
10058;BMP180;5068;51.286;7.518;2023-07-09T02:54:23;99673.00;;;19.70
10058;BMP180;5068;51.286;7.518;2023-07-09T02:55:57;99673.00;;;19.70
10058;BMP180;5068;51.286;7.518;2023-07-09T02:57:30;99666.00;;;19.70
10058;BMP180;5068;51.286;7.518;2023-07-09T02:59:03;99664.00;;;19.70
10058;BMP180;5068;51.286;7.518;2023-07-09T03:00:37;99670.00;;;19.70
10058;BMP180;5068;51.286;7.518;2023-07-09T03:02:10;99679.00;;;19.70
10058;BMP180;5068;51.286;7.518;2023-07-09T03:03:43;99676.00;;;19.60
10058;BMP180;5068;51.286;7.518;2023-07-09T03:05:17;99685.00;;;19.60
10058;BMP180;5068;51.286;7.518;2023-07-09T03:06:50;99682.00;;;19.60
10058;BMP180;5068;51.286;7.518;2023-07-09T03:08:22;99679.00;;;19.60
10058;BMP180;5068;51.286;7.518;2023-07-09T03:09:57;99677.00;;;19.60
10058;BMP180;5068;51.286;7.518;2023-07-09T03:11:33;99684.00;;;19.60
10058;BMP180;5068;51.286;7.518;2023-07-09T03:13:06;99680.00;;;19.60
10058;BMP180;5068;51.286;7.518;2023-07-09T03:14:39;99690.00;;;19.50
10058;BMP180;5068;51.286;7.518;2023-07-09T03:16:13;99680.00;;;19.50
10058;BMP180;5068;51.286;7.518;2023-07-09T03:17:46;99690.00;;;19.50
10058;BMP180;5068;51.286;7.518;2023-07-09T03:19:19;99690.00;;;19.50
10058;BMP180;5068;51.286;7.518;2023-07-09T03:20:52;99700.00;;;19.50
10058;BMP180;5068;51.286;7.518;2023-07-09T03:22:25;99684.00;;;19.50
10058;BMP180;5068;51.286;7.518;2023-07-09T03:23:58;99697.00;;;19.50
10058;BMP180;5068;51.286;7.518;2023-07-09T03:25:31;99703.00;;;19.50
10058;BMP180;5068;51.286;7.518;2023-07-09T03:27:06;99694.00;;;19.50
10058;BMP180;5068;51.286;7.518;2023-07-09T03:28:40;99698.00;;;19.50
10058;BMP180;5068;51.286;7.518;2023-07-09T03:30:12;99706.00;;;19.40
10058;BMP180;5068;51.286;7.518;2023-07-09T03:31:46;99707.00;;;19.40
10058;BMP180;5068;51.286;7.518;2023-07-09T03:33:18;99709.00;;;19.40
10058;BMP180;5068;51.286;7.518;2023-07-09T03:34:52;99715.00;;;19.40
10058;BMP180;5068;51.286;7.518;2023-07-09T03:36:25;99717.00;;;19.40
10058;BMP180;5068;51.286;7.518;2023-07-09T03:37:58;99707.00;;;19.40
10058;BMP180;5068;51.286;7.518;2023-07-09T03:39:31;99706.00;;;19.40
10058;BMP180;5068;51.286;7.518;2023-07-09T03:41:04;99707.00;;;19.40
10058;BMP180;5068;51.286;7.518;2023-07-09T03:42:38;99714.00;;;19.40
10058;BMP180;5068;51.286;7.518;2023-07-09T03:44:11;99720.00;;;19.50
10058;BMP180;5068;51.286;7.518;2023-07-09T03:45:46;99717.00;;;19.50
10058;BMP180;5068;51.286;7.518;2023-07-09T03:47:20;99704.00;;;19.50
10058;BMP180;5068;51.286;7.518;2023-07-09T03:48:52;99714.00;;;19.50
10058;BMP180;5068;51.286;7.518;2023-07-09T03:50:26;99708.00;;;19.50
10058;BMP180;5068;51.286;7.518;2023-07-09T03:51:58;99713.00;;;19.50
10058;BMP180;5068;51.286;7.518;2023-07-09T03:53:32;99715.00;;;19.50
10058;BMP180;5068;51.286;7.518;2023-07-09T03:55:06;99713.00;;;19.50
10058;BMP180;5068;51.286;7.518;2023-07-09T03:56:39;99717.00;;;19.50
10058;BMP180;5068;51.286;7.518;2023-07-09T03:58:13;99722.00;;;19.50
10058;BMP180;5068;51.286;7.518;2023-07-09T03:59:47;99715.00;;;19.50
10058;BMP180;5068;51.286;7.518;2023-07-09T04:01:19;99725.00;;;19.50
10058;BMP180;5068;51.286;7.518;2023-07-09T04:02:54;99720.00;;;19.50
10058;BMP180;5068;51.286;7.518;2023-07-09T04:04:28;99718.00;;;19.50
10058;BMP180;5068;51.286;7.518;2023-07-09T04:06:02;99718.00;;;19.60
10058;BMP180;5068;51.286;7.518;2023-07-09T04:07:35;99712.00;;;19.60
10058;BMP180;5068;51.286;7.518;2023-07-09T04:09:08;99711.00;;;19.50
10058;BMP180;5068;51.286;7.518;2023-07-09T04:10:41;99716.00;;;19.50
10058;BMP180;5068;51.286;7.518;2023-07-09T04:12:14;99711.00;;;19.50
10058;BMP180;5068;51.286;7.518;2023-07-09T04:13:48;99713.00;;;19.50
10058;BMP180;5068;51.286;7.518;2023-07-09T04:15:21;99719.00;;;19.50
10058;BMP180;5068;51.286;7.518;2023-07-09T04:16:53;99724.00;;;19.50
10058;BMP180;5068;51.286;7.518;2023-07-09T04:18:27;99720.00;;;19.50
10058;BMP180;5068;51.286;7.518;2023-07-09T04:20:00;99719.00;;;19.50
10058;BMP180;5068;51.286;7.518;2023-07-09T04:21:33;99721.00;;;19.50
10058;BMP180;5068;51.286;7.518;2023-07-09T04:23:12;99709.00;;;19.40
10058;BMP180;5068;51.286;7.518;2023-07-09T04:24:45;99710.00;;;19.40
10058;BMP180;5068;51.286;7.518;2023-07-09T04:26:18;99711.00;;;19.40
10058;BMP180;5068;51.286;7.518;2023-07-09T04:27:52;99713.00;;;19.40
10058;BMP180;5068;51.286;7.518;2023-07-09T04:29:25;99723.00;;;19.40
10058;BMP180;5068;51.286;7.518;2023-07-09T04:30:59;99721.00;;;19.40
10058;BMP180;5068;51.286;7.518;2023-07-09T04:32:32;99726.00;;;19.40
10058;BMP180;5068;51.286;7.518;2023-07-09T04:34:05;99733.00;;;19.40
10058;BMP180;5068;51.286;7.518;2023-07-09T04:35:38;99731.00;;;19.40
10058;BMP180;5068;51.286;7.518;2023-07-09T04:37:13;99724.00;;;19.40
10058;BMP180;5068;51.286;7.518;2023-07-09T04:38:45;99730.00;;;19.40
10058;BMP180;5068;51.286;7.518;2023-07-09T04:40:20;99725.00;;;19.40
10058;BMP180;5068;51.286;7.518;2023-07-09T04:41:52;99732.00;;;19.50
10058;BMP180;5068;51.286;7.518;2023-07-09T04:43:26;99727.00;;;19.50
10058;BMP180;5068;51.286;7.518;2023-07-09T04:45:01;99724.00;;;19.50
10058;BMP180;5068;51.286;7.518;2023-07-09T04:46:33;99726.00;;;19.50
10058;BMP180;5068;51.286;7.518;2023-07-09T04:48:07;99728.00;;;19.50
10058;BMP180;5068;51.286;7.518;2023-07-09T04:49:41;99727.00;;;19.60
10058;BMP180;5068;51.286;7.518;2023-07-09T04:51:13;99724.00;;;19.60
10058;BMP180;5068;51.286;7.518;2023-07-09T04:52:47;99729.00;;;19.60
10058;BMP180;5068;51.286;7.518;2023-07-09T04:54:20;99733.00;;;19.70
10058;BMP180;5068;51.286;7.518;2023-07-09T04:55:54;99728.00;;;19.70
10058;BMP180;5068;51.286;7.518;2023-07-09T04:57:28;99724.00;;;19.70
10058;BMP180;5068;51.286;7.518;2023-07-09T04:59:00;99729.00;;;19.70
10058;BMP180;5068;51.286;7.518;2023-07-09T05:00:35;99729.00;;;19.80
10058;BMP180;5068;51.286;7.518;2023-07-09T05:02:11;99711.00;;;19.80
10058;BMP180;5068;51.286;7.518;2023-07-09T05:03:43;99729.00;;;19.80
10058;BMP180;5068;51.286;7.518;2023-07-09T05:05:17;99729.00;;;19.80
10058;BMP180;5068;51.286;7.518;2023-07-09T05:06:50;99718.00;;;19.90
10058;BMP180;5068;51.286;7.518;2023-07-09T05:08:22;99720.00;;;19.90
10058;BMP180;5068;51.286;7.518;2023-07-09T05:09:56;99713.00;;;19.90
10058;BMP180;5068;51.286;7.518;2023-07-09T05:11:33;99730.00;;;20.00
10058;BMP180;5068;51.286;7.518;2023-07-09T05:13:05;99726.00;;;20.00
10058;BMP180;5068;51.286;7.518;2023-07-09T05:14:39;99734.00;;;20.10
10058;BMP180;5068;51.286;7.518;2023-07-09T05:16:14;99730.00;;;20.10
10058;BMP180;5068;51.286;7.518;2023-07-09T05:17:51;99731.00;;;20.10
10058;BMP180;5068;51.286;7.518;2023-07-09T05:19:24;99730.00;;;20.20
10058;BMP180;5068;51.286;7.518;2023-07-09T05:20:57;99731.00;;;20.20
10058;BMP180;5068;51.286;7.518;2023-07-09T05:22:30;99731.00;;;20.30
10058;BMP180;5068;51.286;7.518;2023-07-09T05:24:05;99729.00;;;20.30
10058;BMP180;5068;51.286;7.518;2023-07-09T05:25:37;99723.00;;;20.40
10058;BMP180;5068;51.286;7.518;2023-07-09T05:27:22;99726.00;;;20.40
10058;BMP180;5068;51.286;7.518;2023-07-09T05:28:55;99727.00;;;20.40
10058;BMP180;5068;51.286;7.518;2023-07-09T05:30:36;99728.00;;;20.50
10058;BMP180;5068;51.286;7.518;2023-07-09T05:32:11;99726.00;;;20.50
10058;BMP180;5068;51.286;7.518;2023-07-09T05:33:43;99725.00;;;20.60
10058;BMP180;5068;51.286;7.518;2023-07-09T05:35:26;99729.00;;;20.70
10058;BMP180;5068;51.286;7.518;2023-07-09T05:37:00;99724.00;;;20.70
10058;BMP180;5068;51.286;7.518;2023-07-09T05:38:33;99719.00;;;20.80
10058;BMP180;5068;51.286;7.518;2023-07-09T05:40:08;99724.00;;;20.80
10058;BMP180;5068;51.286;7.518;2023-07-09T05:41:42;99727.00;;;20.90
10058;BMP180;5068;51.286;7.518;2023-07-09T05:43:15;99727.00;;;21.00
10058;BMP180;5068;51.286;7.518;2023-07-09T05:44:48;99734.00;;;21.00
10058;BMP180;5068;51.286;7.518;2023-07-09T05:46:23;99724.00;;;21.10
10058;BMP180;5068;51.286;7.518;2023-07-09T05:48:03;99731.00;;;21.10
10058;BMP180;5068;51.286;7.518;2023-07-09T05:50:01;99723.00;;;21.20
10058;BMP180;5068;51.286;7.518;2023-07-09T05:51:35;99723.00;;;21.20
10058;BMP180;5068;51.286;7.518;2023-07-09T05:53:08;99725.00;;;21.30
10058;BMP180;5068;51.286;7.518;2023-07-09T05:54:42;99740.00;;;21.40
10058;BMP180;5068;51.286;7.518;2023-07-09T05:56:15;99730.00;;;21.40
10058;BMP180;5068;51.286;7.518;2023-07-09T05:57:47;99729.00;;;21.50
10058;BMP180;5068;51.286;7.518;2023-07-09T05:59:20;99728.00;;;21.50
10058;BMP180;5068;51.286;7.518;2023-07-09T06:00:54;99733.00;;;21.60
10058;BMP180;5068;51.286;7.518;2023-07-09T06:02:29;99735.00;;;21.70
10058;BMP180;5068;51.286;7.518;2023-07-09T06:04:04;99727.00;;;21.80
10058;BMP180;5068;51.286;7.518;2023-07-09T06:05:38;99730.00;;;21.80
10058;BMP180;5068;51.286;7.518;2023-07-09T06:07:12;99736.00;;;21.90
10058;BMP180;5068;51.286;7.518;2023-07-09T06:08:45;99738.00;;;22.00
10058;BMP180;5068;51.286;7.518;2023-07-09T06:10:19;99740.00;;;22.00
10058;BMP180;5068;51.286;7.518;2023-07-09T06:11:53;99740.00;;;22.10
10058;BMP180;5068;51.286;7.518;2023-07-09T06:13:29;99732.00;;;22.10
10058;BMP180;5068;51.286;7.518;2023-07-09T06:15:04;99735.00;;;22.20
10058;BMP180;5068;51.286;7.518;2023-07-09T06:16:38;99732.00;;;22.30
10058;BMP180;5068;51.286;7.518;2023-07-09T06:18:10;99730.00;;;22.30
10058;BMP180;5068;51.286;7.518;2023-07-09T06:19:45;99734.00;;;22.40
10058;BMP180;5068;51.286;7.518;2023-07-09T06:21:19;99729.00;;;22.50
10058;BMP180;5068;51.286;7.518;2023-07-09T06:22:52;99736.00;;;22.60
10058;BMP180;5068;51.286;7.518;2023-07-09T06:24:24;99736.00;;;22.60
10058;BMP180;5068;51.286;7.518;2023-07-09T06:25:58;99735.00;;;22.70
10058;BMP180;5068;51.286;7.518;2023-07-09T06:27:31;99733.00;;;22.80
10058;BMP180;5068;51.286;7.518;2023-07-09T06:29:05;99733.00;;;22.80
10058;BMP180;5068;51.286;7.518;2023-07-09T06:30:38;99731.00;;;22.90
10058;BMP180;5068;51.286;7.518;2023-07-09T06:32:12;99728.00;;;23.00
10058;BMP180;5068;51.286;7.518;2023-07-09T06:33:45;99727.00;;;23.10
10058;BMP180;5068;51.286;7.518;2023-07-09T06:35:18;99724.00;;;23.10
10058;BMP180;5068;51.286;7.518;2023-07-09T06:36:52;99727.00;;;23.20
10058;BMP180;5068;51.286;7.518;2023-07-09T06:38:25;99728.00;;;23.20
10058;BMP180;5068;51.286;7.518;2023-07-09T06:39:57;99725.00;;;23.30
10058;BMP180;5068;51.286;7.518;2023-07-09T06:41:31;99715.00;;;23.40
10058;BMP180;5068;51.286;7.518;2023-07-09T06:43:13;99731.00;;;23.50
10058;BMP180;5068;51.286;7.518;2023-07-09T06:44:47;99726.00;;;23.60
10058;BMP180;5068;51.286;7.518;2023-07-09T06:46:21;99730.00;;;23.60
10058;BMP180;5068;51.286;7.518;2023-07-09T06:47:55;99725.00;;;23.70
10058;BMP180;5068;51.286;7.518;2023-07-09T06:49:28;99726.00;;;23.80
10058;BMP180;5068;51.286;7.518;2023-07-09T06:51:03;99730.00;;;23.90
10058;BMP180;5068;51.286;7.518;2023-07-09T06:52:36;99729.00;;;24.00
10058;BMP180;5068;51.286;7.518;2023-07-09T06:54:09;99723.00;;;24.10
10058;BMP180;5068;51.286;7.518;2023-07-09T06:55:42;99725.00;;;24.20
10058;BMP180;5068;51.286;7.518;2023-07-09T06:57:17;99729.00;;;24.20
10058;BMP180;5068;51.286;7.518;2023-07-09T06:58:49;99727.00;;;24.30
10058;BMP180;5068;51.286;7.518;2023-07-09T07:00:23;99736.00;;;24.40
10058;BMP180;5068;51.286;7.518;2023-07-09T07:01:55;99726.00;;;24.50
10058;BMP180;5068;51.286;7.518;2023-07-09T07:03:28;99725.00;;;24.60
10058;BMP180;5068;51.286;7.518;2023-07-09T07:05:01;99725.00;;;24.70
10058;BMP180;5068;51.286;7.518;2023-07-09T07:06:36;99724.00;;;24.80
10058;BMP180;5068;51.286;7.518;2023-07-09T07:08:09;99728.00;;;24.90
10058;BMP180;5068;51.286;7.518;2023-07-09T07:09:42;99714.00;;;24.90
10058;BMP180;5068;51.286;7.518;2023-07-09T07:11:15;99716.00;;;25.00
10058;BMP180;5068;51.286;7.518;2023-07-09T07:12:49;99725.00;;;25.10
10058;BMP180;5068;51.286;7.518;2023-07-09T07:14:21;99717.00;;;25.20
10058;BMP180;5068;51.286;7.518;2023-07-09T07:15:55;99717.00;;;25.30
10058;BMP180;5068;51.286;7.518;2023-07-09T07:17:27;99719.00;;;25.40
10058;BMP180;5068;51.286;7.518;2023-07-09T07:19:00;99714.00;;;25.40
10058;BMP180;5068;51.286;7.518;2023-07-09T07:20:34;99723.00;;;25.50
10058;BMP180;5068;51.286;7.518;2023-07-09T07:22:09;99715.00;;;25.60
10058;BMP180;5068;51.286;7.518;2023-07-09T07:23:41;99715.00;;;25.70
10058;BMP180;5068;51.286;7.518;2023-07-09T07:25:15;99712.00;;;25.80
10058;BMP180;5068;51.286;7.518;2023-07-09T07:26:47;99717.00;;;25.90
10058;BMP180;5068;51.286;7.518;2023-07-09T07:28:21;99716.00;;;26.00
10058;BMP180;5068;51.286;7.518;2023-07-09T07:29:54;99710.00;;;26.10
10058;BMP180;5068;51.286;7.518;2023-07-09T07:31:27;99718.00;;;26.20
10058;BMP180;5068;51.286;7.518;2023-07-09T07:33:01;99717.00;;;26.30
10058;BMP180;5068;51.286;7.518;2023-07-09T07:34:33;99708.00;;;26.40
10058;BMP180;5068;51.286;7.518;2023-07-09T07:36:07;99706.00;;;26.50
10058;BMP180;5068;51.286;7.518;2023-07-09T07:37:44;99704.00;;;26.60
10058;BMP180;5068;51.286;7.518;2023-07-09T07:39:18;99707.00;;;26.70
10058;BMP180;5068;51.286;7.518;2023-07-09T07:40:50;99708.00;;;26.80
10058;BMP180;5068;51.286;7.518;2023-07-09T07:42:23;99713.00;;;27.00
10058;BMP180;5068;51.286;7.518;2023-07-09T07:43:56;99706.00;;;27.10
10058;BMP180;5068;51.286;7.518;2023-07-09T07:45:29;99705.00;;;27.20
10058;BMP180;5068;51.286;7.518;2023-07-09T07:47:03;99710.00;;;27.30
10058;BMP180;5068;51.286;7.518;2023-07-09T07:48:36;99703.00;;;27.40
10058;BMP180;5068;51.286;7.518;2023-07-09T07:50:10;99708.00;;;27.50
10058;BMP180;5068;51.286;7.518;2023-07-09T07:51:42;99706.00;;;27.60
10058;BMP180;5068;51.286;7.518;2023-07-09T07:53:17;99707.00;;;27.80
10058;BMP180;5068;51.286;7.518;2023-07-09T07:54:51;99706.00;;;27.90
10058;BMP180;5068;51.286;7.518;2023-07-09T07:56:24;99710.00;;;28.00
10058;BMP180;5068;51.286;7.518;2023-07-09T07:57:57;99713.00;;;28.10
10058;BMP180;5068;51.286;7.518;2023-07-09T07:59:32;99706.00;;;28.30
10058;BMP180;5068;51.286;7.518;2023-07-09T08:01:06;99716.00;;;28.40
10058;BMP180;5068;51.286;7.518;2023-07-09T08:02:40;99708.00;;;28.50
10058;BMP180;5068;51.286;7.518;2023-07-09T08:04:13;99703.00;;;28.60
10058;BMP180;5068;51.286;7.518;2023-07-09T08:05:49;99701.00;;;28.70
10058;BMP180;5068;51.286;7.518;2023-07-09T08:07:22;99706.00;;;28.90
10058;BMP180;5068;51.286;7.518;2023-07-09T08:08:57;99717.00;;;29.00
10058;BMP180;5068;51.286;7.518;2023-07-09T08:10:30;99704.00;;;29.10
10058;BMP180;5068;51.286;7.518;2023-07-09T08:12:05;99701.00;;;29.20
10058;BMP180;5068;51.286;7.518;2023-07-09T08:13:46;99696.00;;;29.30
10058;BMP180;5068;51.286;7.518;2023-07-09T08:15:19;99694.00;;;29.40
10058;BMP180;5068;51.286;7.518;2023-07-09T08:16:52;99702.00;;;29.60
10058;BMP180;5068;51.286;7.518;2023-07-09T08:18:25;99697.00;;;29.70
10058;BMP180;5068;51.286;7.518;2023-07-09T08:19:58;99686.00;;;29.80
10058;BMP180;5068;51.286;7.518;2023-07-09T08:21:31;99697.00;;;29.90
10058;BMP180;5068;51.286;7.518;2023-07-09T08:23:04;99690.00;;;30.00
10058;BMP180;5068;51.286;7.518;2023-07-09T08:24:38;99695.00;;;30.10
10058;BMP180;5068;51.286;7.518;2023-07-09T08:26:11;99695.00;;;30.30
10058;BMP180;5068;51.286;7.518;2023-07-09T08:27:45;99694.00;;;30.40
10058;BMP180;5068;51.286;7.518;2023-07-09T08:29:19;99691.00;;;30.50
10058;BMP180;5068;51.286;7.518;2023-07-09T08:30:52;99686.00;;;30.60
10058;BMP180;5068;51.286;7.518;2023-07-09T08:32:25;99694.00;;;30.70
10058;BMP180;5068;51.286;7.518;2023-07-09T08:34:01;99696.00;;;30.80
10058;BMP180;5068;51.286;7.518;2023-07-09T08:35:34;99693.00;;;30.90
10058;BMP180;5068;51.286;7.518;2023-07-09T08:37:09;99689.00;;;31.00
10058;BMP180;5068;51.286;7.518;2023-07-09T08:38:42;99690.00;;;31.10
10058;BMP180;5068;51.286;7.518;2023-07-09T08:40:18;99687.00;;;31.20
10058;BMP180;5068;51.286;7.518;2023-07-09T08:41:58;99684.00;;;31.30
10058;BMP180;5068;51.286;7.518;2023-07-09T08:43:45;99676.00;;;31.40
10058;BMP180;5068;51.286;7.518;2023-07-09T08:45:45;99685.00;;;31.50
10058;BMP180;5068;51.286;7.518;2023-07-09T08:47:32;99680.00;;;31.60
10058;BMP180;5068;51.286;7.518;2023-07-09T08:49:17;99677.00;;;31.70
10058;BMP180;5068;51.286;7.518;2023-07-09T08:50:57;99685.00;;;31.80
10058;BMP180;5068;51.286;7.518;2023-07-09T08:52:39;99684.00;;;32.00
10058;BMP180;5068;51.286;7.518;2023-07-09T08:54:24;99675.00;;;32.10
10058;BMP180;5068;51.286;7.518;2023-07-09T08:56:04;99693.00;;;32.10
10058;BMP180;5068;51.286;7.518;2023-07-09T08:57:46;99681.00;;;32.20
10058;BMP180;5068;51.286;7.518;2023-07-09T08:59:26;99688.00;;;32.30
10058;BMP180;5068;51.286;7.518;2023-07-09T09:01:11;99674.00;;;32.40
10058;BMP180;5068;51.286;7.518;2023-07-09T09:02:51;99683.00;;;32.50
10058;BMP180;5068;51.286;7.518;2023-07-09T09:04:29;99677.00;;;32.60
10058;BMP180;5068;51.286;7.518;2023-07-09T09:06:14;99669.00;;;32.60
10058;BMP180;5068;51.286;7.518;2023-07-09T09:07:56;99669.00;;;32.70
10058;BMP180;5068;51.286;7.518;2023-07-09T09:09:40;99670.00;;;32.80
10058;BMP180;5068;51.286;7.518;2023-07-09T09:11:22;99669.00;;;32.90
10058;BMP180;5068;51.286;7.518;2023-07-09T09:13:07;99670.00;;;33.00
10058;BMP180;5068;51.286;7.518;2023-07-09T09:14:44;99658.00;;;33.10